createdAt,value
2024-02-14T00:01:11.789Z,101807.56
2024-02-14T00:03:40.211Z,101801.41
2024-02-14T00:06:08.752Z,101780.88
2024-02-14T00:08:36.961Z,101801.56
2024-02-14T00:11:05.269Z,101800.19
2024-02-14T00:13:35.524Z,101800.50
2024-02-14T00:16:03.929Z,101804.00
2024-02-14T00:18:33.431Z,101808.19
2024-02-14T00:21:01.966Z,101803.28
2024-02-14T00:23:30.384Z,101805.22
2024-02-14T00:25:58.415Z,101820.25
2024-02-14T00:28:28.325Z,101821.94
2024-02-14T00:30:56.461Z,101829.25
2024-02-14T00:33:24.646Z,101821.69
2024-02-14T00:35:54.260Z,101814.78
2024-02-14T00:38:22.382Z,101815.88
2024-02-14T00:40:50.332Z,101810.44
2024-02-14T00:43:18.494Z,101808.72
2024-02-14T00:45:46.766Z,101816.72
2024-02-14T00:48:14.965Z,101812.28
2024-02-14T00:50:43.425Z,101821.16
2024-02-14T00:53:13.279Z,101817.66
2024-02-14T00:55:41.217Z,101826.72
2024-02-14T00:58:09.352Z,101831.09
2024-02-14T01:00:37.333Z,101831.72
2024-02-14T01:03:05.914Z,101823.16
2024-02-14T01:05:34.089Z,101823.59
2024-02-14T01:08:02.511Z,101821.09
2024-02-14T01:10:31.855Z,101832.31
2024-02-14T01:12:59.863Z,101836.09
2024-02-14T01:15:27.812Z,101824.13
2024-02-14T01:17:55.993Z,101810.34
2024-02-14T01:20:24.101Z,101812.97
2024-02-14T01:22:52.146Z,101816.47
2024-02-14T01:25:20.091Z,101828.47
2024-02-14T01:27:50.313Z,101825.66
2024-02-14T01:30:19.318Z,101819.44
2024-02-14T01:32:47.784Z,101823.88
2024-02-14T01:35:15.790Z,101823.19
2024-02-14T01:37:45.183Z,101834.75
2024-02-14T01:40:14.176Z,101845.19
2024-02-14T01:42:42.162Z,101848.63
2024-02-14T01:45:12.046Z,101854.84
2024-02-14T01:47:42.754Z,101853.47
2024-02-14T01:50:12.933Z,101862.53
2024-02-14T01:52:42.307Z,101865.19
2024-02-14T01:55:10.959Z,101860.47
2024-02-14T01:57:41.471Z,101857.75
2024-02-14T02:00:16.664Z,101849.19
2024-02-14T02:02:45.074Z,101844.81
2024-02-14T02:05:18.178Z,101847.47
2024-02-14T02:07:49.389Z,101845.63
2024-02-14T02:10:18.036Z,101843.91
2024-02-14T02:12:46.105Z,101844.03
2024-02-14T02:15:15.737Z,101849.59
2024-02-14T02:17:47.049Z,101846.25
2024-02-14T02:20:16.625Z,101841.81
2024-02-14T02:22:49.371Z,101832.19
2024-02-14T02:25:17.458Z,101842.75
2024-02-14T02:27:45.690Z,101845.19
2024-02-14T02:30:14.989Z,101844.38
2024-02-14T02:32:44.334Z,101836.53
2024-02-14T02:35:12.504Z,101826.75
2024-02-14T02:37:40.478Z,101823.56
2024-02-14T02:40:12.023Z,101819.56
2024-02-14T02:42:40.180Z,101818.97
2024-02-14T02:45:09.264Z,101810.13
2024-02-14T02:47:37.425Z,101817.97
2024-02-14T02:50:07.140Z,101816.31
2024-02-14T02:52:35.122Z,101816.25
2024-02-14T02:55:03.503Z,101812.47
2024-02-14T02:57:33.442Z,101830.97
2024-02-14T03:00:01.687Z,101833.03
2024-02-14T03:02:29.818Z,101826.91
2024-02-14T03:04:58.419Z,101829.41
2024-02-14T03:07:26.424Z,101829.47
2024-02-14T03:09:54.421Z,101827.69
2024-02-14T03:12:24.082Z,101831.47
2024-02-14T03:14:53.505Z,101814.25
2024-02-14T03:17:21.553Z,101824.19
2024-02-14T03:19:52.962Z,101826.22
2024-02-14T03:22:21.082Z,101819.50
2024-02-14T03:24:49.960Z,101835.41
2024-02-14T03:27:18.440Z,101831.28
2024-02-14T03:29:48.664Z,101829.81
2024-02-14T03:32:18.460Z,101837.88
2024-02-14T03:34:46.470Z,101834.63
2024-02-14T03:37:14.496Z,101837.47
2024-02-14T03:39:42.548Z,101838.31
2024-02-14T03:42:10.749Z,101840.25
2024-02-14T03:44:39.554Z,101839.31
2024-02-14T03:47:07.686Z,101839.31
2024-02-14T03:49:37.248Z,101815.13
2024-02-14T03:52:11.033Z,101833.66
2024-02-14T03:54:39.297Z,101844.00
2024-02-14T03:57:10.037Z,101852.78
2024-02-14T03:59:40.333Z,101856.22
2024-02-14T04:02:11.262Z,101857.47
2024-02-14T04:04:41.449Z,101852.25
2024-02-14T04:07:10.785Z,101851.34
2024-02-14T04:09:39.154Z,101838.19
2024-02-14T04:12:08.120Z,101840.91
2024-02-14T04:14:36.414Z,101835.88
2024-02-14T04:17:04.613Z,101846.44
2024-02-14T04:19:32.750Z,101841.31
2024-02-14T04:22:02.254Z,101837.75
2024-02-14T04:24:30.846Z,101828.25
2024-02-14T04:26:58.953Z,101832.31
2024-02-14T04:29:28.016Z,101837.59
2024-02-14T04:31:56.247Z,101828.03
2024-02-14T04:34:24.259Z,101828.38
2024-02-14T04:36:52.573Z,101822.44
2024-02-14T04:39:21.901Z,101828.75
2024-02-14T04:41:57.353Z,101827.19
2024-02-14T04:44:30.246Z,101830.00
2024-02-14T04:46:59.498Z,101829.22
2024-02-14T04:49:27.938Z,101823.75
2024-02-14T04:51:56.718Z,101815.84
2024-02-14T04:54:26.309Z,101818.34
2024-02-14T04:56:57.245Z,101834.28
2024-02-14T04:59:27.815Z,101842.16
2024-02-14T05:01:57.515Z,101840.19
2024-02-14T05:04:25.766Z,101848.94
2024-02-14T05:06:57.251Z,101842.94
2024-02-14T05:09:28.546Z,101845.78
2024-02-14T05:11:56.566Z,101843.41
2024-02-14T05:14:24.804Z,101840.41
2024-02-14T05:16:53.009Z,101842.38
2024-02-14T05:19:23.136Z,101836.63
2024-02-14T05:21:51.462Z,101850.72
2024-02-14T05:24:19.928Z,101851.72
2024-02-14T05:26:49.657Z,101850.31
2024-02-14T05:29:19.959Z,101848.69
2024-02-14T05:31:49.952Z,101834.88
2024-02-14T05:34:18.387Z,101819.63
2024-02-14T05:36:48.057Z,101851.00
2024-02-14T05:39:17.283Z,101850.34
2024-02-14T05:41:45.835Z,101852.19
2024-02-14T05:44:15.288Z,101859.03
2024-02-14T05:46:43.578Z,101859.84
2024-02-14T05:49:11.941Z,101858.81
2024-02-14T05:51:39.979Z,101866.66
2024-02-14T05:54:08.197Z,101871.19
2024-02-14T05:56:36.243Z,101868.69
2024-02-14T05:59:04.527Z,101880.19
2024-02-14T06:01:33.957Z,101873.22
2024-02-14T06:04:02.376Z,101867.94
2024-02-14T06:06:30.418Z,101873.94
2024-02-14T06:08:59.213Z,101869.28
2024-02-14T06:11:27.716Z,101868.38
2024-02-14T06:13:55.930Z,101865.25
2024-02-14T06:16:23.920Z,101860.38
2024-02-14T06:18:53.597Z,101863.00
2024-02-14T06:21:21.738Z,101852.69
2024-02-14T06:23:49.843Z,101861.28
2024-02-14T06:26:18.944Z,101858.59
2024-02-14T06:28:47.381Z,101871.09
2024-02-14T06:31:15.416Z,101877.22
2024-02-14T06:33:45.295Z,101881.75
2024-02-14T06:36:14.797Z,101870.22
2024-02-14T06:38:42.905Z,101880.66
2024-02-14T06:41:10.893Z,101878.13
2024-02-14T06:43:40.522Z,101879.06
2024-02-14T06:46:08.502Z,101880.88
2024-02-14T06:48:37.035Z,101885.13
2024-02-14T06:51:05.517Z,101881.69
2024-02-14T06:53:35.152Z,101886.09
2024-02-14T06:56:03.221Z,101895.03
2024-02-14T06:58:31.346Z,101901.13
2024-02-14T07:00:59.477Z,101899.03
2024-02-14T07:03:27.664Z,101906.63
2024-02-14T07:05:55.873Z,101912.81
2024-02-14T07:08:25.196Z,101904.06
2024-02-14T07:10:54.753Z,101907.38
2024-02-14T07:13:22.859Z,101912.53
2024-02-14T07:15:51.113Z,101914.19
2024-02-14T07:18:19.420Z,101912.34
2024-02-14T07:20:47.558Z,101916.69
2024-02-14T07:23:15.547Z,101921.06
2024-02-14T07:25:43.589Z,101924.50
2024-02-14T07:28:13.306Z,101932.88
2024-02-14T07:30:41.658Z,101935.09
2024-02-14T07:33:10.757Z,101929.38
2024-02-14T07:35:39.480Z,101930.69
2024-02-14T07:38:07.615Z,101930.13
2024-02-14T07:40:35.590Z,101934.06
2024-02-14T07:43:03.638Z,101938.06
2024-02-14T07:45:33.125Z,101935.53
2024-02-14T07:48:01.271Z,101935.47
2024-02-14T07:50:29.855Z,101938.34
2024-02-14T07:52:57.819Z,101936.47
2024-02-14T07:55:25.879Z,101929.72
2024-02-14T07:57:54.838Z,101928.50
2024-02-14T08:00:24.699Z,101925.16
2024-02-14T08:02:54.120Z,101931.13
2024-02-14T08:05:22.186Z,101936.56
2024-02-14T08:07:50.315Z,101940.63
2024-02-14T08:10:18.407Z,101937.00
2024-02-14T08:12:46.466Z,101939.16
2024-02-14T08:15:14.581Z,101945.53
2024-02-14T08:17:46.600Z,101946.84
2024-02-14T08:20:17.085Z,101943.50
2024-02-14T08:22:45.164Z,101951.66
2024-02-14T08:25:14.042Z,101942.22
2024-02-14T08:27:42.013Z,101959.03
2024-02-14T08:30:10.724Z,101960.53
2024-02-14T08:32:38.984Z,101958.59
2024-02-14T08:35:08.726Z,101959.88
2024-02-14T08:37:39.419Z,101954.34
2024-02-14T08:40:08.514Z,101965.56
2024-02-14T08:42:36.493Z,101955.00
2024-02-14T08:45:04.793Z,101962.88
2024-02-14T08:47:32.954Z,101958.84
2024-02-14T08:50:01.058Z,101954.25
2024-02-14T08:52:29.658Z,101954.25
2024-02-14T08:54:59.088Z,101954.88
2024-02-14T08:57:27.529Z,101948.78
2024-02-14T08:59:56.341Z,101942.91
2024-02-14T09:02:26.603Z,101944.81
2024-02-14T09:04:54.672Z,101946.41
2024-02-14T09:07:22.692Z,101946.16
2024-02-14T09:09:50.784Z,101939.97
2024-02-14T09:12:20.195Z,101938.66
2024-02-14T09:14:48.244Z,101939.06
2024-02-14T09:17:16.610Z,101933.72
2024-02-14T09:19:44.775Z,101934.97
2024-02-14T09:22:12.743Z,101944.38
2024-02-14T09:24:40.795Z,101940.25
2024-02-14T09:27:08.793Z,101933.81
2024-02-14T09:29:39.568Z,101937.00
2024-02-14T09:32:07.962Z,101938.50
2024-02-14T09:34:36.779Z,101929.09
2024-02-14T09:37:06.851Z,101943.03
2024-02-14T09:39:37.889Z,101943.41
2024-02-14T09:42:12.029Z,101945.63
2024-02-14T09:44:42.565Z,101942.50
2024-02-14T09:47:11.534Z,101940.66
2024-02-14T09:49:42.109Z,101944.47
2024-02-14T09:52:13.936Z,101943.91
2024-02-14T09:54:42.643Z,101943.31
2024-02-14T09:57:11.356Z,101934.94
2024-02-14T09:59:41.447Z,101941.38
2024-02-14T10:02:11.406Z,101937.97
2024-02-14T10:04:40.321Z,101935.34
2024-02-14T10:07:09.845Z,101936.69
2024-02-14T10:09:43.438Z,101934.09
2024-02-14T10:12:12.150Z,101930.69
2024-02-14T10:14:41.736Z,101937.84
2024-02-14T10:17:11.095Z,101933.59
2024-02-14T10:19:39.157Z,101930.06
2024-02-14T10:22:10.081Z,101935.50
2024-02-14T10:24:38.046Z,101929.53
2024-02-14T10:27:10.330Z,101934.88
2024-02-14T10:29:38.585Z,101932.63
2024-02-14T10:32:08.265Z,101928.84
2024-02-14T10:34:41.118Z,101923.59
2024-02-14T10:37:10.593Z,101924.50
2024-02-14T10:39:40.995Z,101918.22
2024-02-14T10:42:09.100Z,101918.31
2024-02-14T10:44:38.681Z,101917.38
2024-02-14T10:47:12.976Z,101915.34
2024-02-14T10:49:44.804Z,101914.53
2024-02-14T10:52:13.656Z,101913.34
2024-02-14T10:54:41.865Z,101919.06
2024-02-14T10:57:13.004Z,101912.75
2024-02-14T10:59:47.173Z,101910.72
2024-02-14T11:02:17.564Z,101912.44
2024-02-14T11:04:45.946Z,101911.19
2024-02-14T11:07:14.421Z,101905.56
2024-02-14T11:09:43.283Z,101909.72
2024-02-14T11:12:13.160Z,101884.78
2024-02-14T11:14:46.438Z,101896.41
2024-02-14T11:17:16.238Z,101881.81
2024-02-14T11:19:44.513Z,101890.34
2024-02-14T11:22:14.365Z,101888.03
2024-02-14T11:24:42.658Z,101894.06
2024-02-14T11:27:29.308Z,101886.63
2024-02-14T11:30:02.639Z,101876.22
2024-02-14T11:32:34.089Z,101876.25
2024-02-14T11:35:02.200Z,101874.22
2024-02-14T11:37:30.884Z,101853.47
2024-02-14T11:39:59.537Z,101863.59
2024-02-14T11:42:28.639Z,101860.66
2024-02-14T11:44:57.736Z,101869.22
2024-02-14T11:47:26.579Z,101866.59
2024-02-14T11:49:56.086Z,101863.66
2024-02-14T11:52:24.880Z,101860.72
2024-02-14T11:54:52.894Z,101852.53
2024-02-14T11:57:21.065Z,101854.44
2024-02-14T11:59:54.194Z,101852.94
2024-02-14T12:02:23.315Z,101846.59
2024-02-14T12:04:55.062Z,101839.53
2024-02-14T12:07:25.852Z,101836.56
2024-02-14T12:09:54.242Z,101843.88
2024-02-14T12:12:24.122Z,101848.63
2024-02-14T12:14:54.298Z,101845.31
2024-02-14T12:17:23.328Z,101842.25
2024-02-14T12:19:53.202Z,101841.94
2024-02-14T12:22:22.659Z,101847.00
2024-02-14T12:24:53.473Z,101839.13
2024-02-14T12:27:22.375Z,101836.94
2024-02-14T12:29:51.054Z,101826.81
2024-02-14T12:32:19.555Z,101836.13
2024-02-14T12:34:47.721Z,101835.78
2024-02-14T12:37:16.502Z,101834.44
2024-02-14T12:39:44.503Z,101828.56
2024-02-14T12:42:14.095Z,101836.50
2024-02-14T12:44:42.274Z,101830.59
2024-02-14T12:47:10.335Z,101836.69
2024-02-14T12:49:38.549Z,101817.44
2024-02-14T12:52:06.832Z,101819.16
2024-02-14T12:54:35.130Z,101821.22
2024-02-14T12:57:03.526Z,101812.91
2024-02-14T12:59:33.101Z,101808.88
2024-02-14T13:02:01.951Z,101801.59
2024-02-14T13:04:30.007Z,101805.31
2024-02-14T13:06:58.005Z,101805.69
2024-02-14T13:09:26.153Z,101802.47
2024-02-14T13:11:54.715Z,101804.69
2024-02-14T13:14:22.722Z,101800.97
2024-02-14T13:16:52.319Z,101798.63
2024-02-14T13:19:20.824Z,101797.94
2024-02-14T13:21:49.494Z,101785.44
2024-02-14T13:24:18.414Z,101782.56
2024-02-14T13:26:46.667Z,101779.00
2024-02-14T13:29:14.979Z,101776.63
2024-02-14T13:31:43.248Z,101782.72
2024-02-14T13:34:13.220Z,101779.84
2024-02-14T13:36:41.429Z,101779.50
2024-02-14T13:39:10.017Z,101777.63
2024-02-14T13:41:39.097Z,101776.78
2024-02-14T13:44:08.569Z,101774.56
2024-02-14T13:46:36.725Z,101772.19
2024-02-14T13:49:05.066Z,101772.19
2024-02-14T13:51:34.438Z,101760.69
2024-02-14T13:54:02.506Z,101759.34
2024-02-14T13:56:30.482Z,101763.88
2024-02-14T13:58:58.692Z,101757.81
2024-02-14T14:01:27.644Z,101762.03
2024-02-14T14:03:57.019Z,101761.75
2024-02-14T14:06:25.919Z,101755.97
2024-02-14T14:08:56.011Z,101755.63
2024-02-14T14:11:24.082Z,101746.19
2024-02-14T14:13:52.156Z,101750.06
2024-02-14T14:16:22.781Z,101742.47
2024-02-14T14:18:54.581Z,101751.28
2024-02-14T14:21:23.320Z,101747.56
2024-02-14T14:23:51.460Z,101742.81
2024-02-14T14:26:21.056Z,101747.38
2024-02-14T14:28:49.066Z,101743.50
2024-02-14T14:31:17.076Z,101743.13
2024-02-14T14:33:45.254Z,101738.06
2024-02-14T14:36:13.304Z,101741.63
2024-02-14T14:38:42.038Z,101743.66
2024-02-14T14:41:11.496Z,101740.25
2024-02-14T14:43:41.408Z,101748.22
2024-02-14T14:46:09.371Z,101742.28
2024-02-14T14:48:37.500Z,101744.81
2024-02-14T14:51:06.048Z,101740.59
2024-02-14T14:53:35.345Z,101744.50
2024-02-14T14:56:03.922Z,101747.22
2024-02-14T14:58:34.672Z,101745.88
2024-02-14T15:01:05.946Z,101739.78
2024-02-14T15:03:34.333Z,101744.84
2024-02-14T15:06:02.504Z,101750.56
2024-02-14T15:08:30.845Z,101745.84
2024-02-14T15:10:59.748Z,101747.00
2024-02-14T15:13:28.854Z,101744.47
2024-02-14T15:15:58.941Z,101745.66
2024-02-14T15:18:28.776Z,101747.34
2024-02-14T15:20:56.808Z,101749.69
2024-02-14T15:23:24.740Z,101742.06
2024-02-14T15:25:53.158Z,101744.25
2024-02-14T15:28:27.517Z,101746.78
2024-02-14T15:31:13.148Z,101746.09
2024-02-14T15:33:42.913Z,101745.78
2024-02-14T15:36:12.350Z,101736.13
2024-02-14T15:38:40.498Z,101744.41
2024-02-14T15:41:08.607Z,101737.31
2024-02-14T15:43:37.786Z,101743.03
2024-02-14T15:46:06.062Z,101736.59
2024-02-14T15:48:34.575Z,101738.94
2024-02-14T15:51:04.318Z,101734.03
2024-02-14T15:53:33.066Z,101747.34
2024-02-14T15:56:02.869Z,101741.75
2024-02-14T15:58:31.406Z,101740.53
2024-02-14T16:00:59.546Z,101747.44
2024-02-14T16:03:28.034Z,101742.50
2024-02-14T16:05:56.393Z,101741.66
2024-02-14T16:08:28.624Z,101742.13
2024-02-14T16:10:58.110Z,101742.03
2024-02-14T16:13:26.151Z,101736.47
2024-02-14T16:15:54.785Z,101735.25
2024-02-14T16:18:22.948Z,101745.81
2024-02-14T16:20:52.028Z,101744.91
2024-02-14T16:23:20.321Z,101734.94
2024-02-14T16:25:50.525Z,101736.41
2024-02-14T16:28:18.641Z,101735.19
2024-02-14T16:30:47.253Z,101737.66
2024-02-14T16:33:15.361Z,101740.97
2024-02-14T16:35:43.437Z,101745.00
2024-02-14T16:38:11.484Z,101747.47
2024-02-14T16:40:40.924Z,101743.84
2024-02-14T16:43:13.304Z,101749.00
2024-02-14T16:45:41.611Z,101749.53
2024-02-14T16:48:12.277Z,101754.00
2024-02-14T16:50:40.493Z,101749.84
2024-02-14T16:53:08.515Z,101753.59
2024-02-14T16:55:38.065Z,101754.63
2024-02-14T16:58:06.833Z,101754.56
2024-02-14T17:00:36.303Z,101755.44
2024-02-14T17:03:11.428Z,101761.72
2024-02-14T17:05:44.199Z,101766.47
2024-02-14T17:08:12.590Z,101763.09
2024-02-14T17:10:41.165Z,101766.81
2024-02-14T17:13:10.021Z,101768.81
2024-02-14T17:15:39.776Z,101774.66
2024-02-14T17:18:09.618Z,101785.16
2024-02-14T17:20:37.787Z,101776.81
2024-02-14T17:23:06.167Z,101781.75
2024-02-14T17:25:34.176Z,101784.88
2024-02-14T17:28:02.183Z,101787.84
2024-02-14T17:30:30.527Z,101789.69
2024-02-14T17:33:02.246Z,101797.50
2024-02-14T17:35:30.546Z,101793.47
2024-02-14T17:37:58.657Z,101792.03
2024-02-14T17:40:26.691Z,101800.41
2024-02-14T17:42:54.708Z,101795.69
2024-02-14T17:45:22.815Z,101802.34
2024-02-14T17:47:51.020Z,101810.88
2024-02-14T17:50:20.743Z,101810.91
2024-02-14T17:52:49.691Z,101808.91
2024-02-14T17:55:19.417Z,101806.22
2024-02-14T17:57:48.191Z,101804.91
2024-02-14T18:00:16.837Z,101813.84
2024-02-14T18:02:44.983Z,101805.22
2024-02-14T18:05:13.370Z,101816.81
2024-02-14T18:07:42.804Z,101811.69
2024-02-14T18:10:11.011Z,101818.91
2024-02-14T18:12:39.179Z,101813.19
2024-02-14T18:15:08.853Z,101818.50
2024-02-14T18:17:37.218Z,101818.13
2024-02-14T18:20:06.177Z,101821.88
2024-02-14T18:22:35.240Z,101818.47
2024-02-14T18:25:05.831Z,101824.00
2024-02-14T18:27:33.941Z,101826.19
2024-02-14T18:30:02.372Z,101826.91
2024-02-14T18:32:30.477Z,101828.63
2024-02-14T18:34:58.673Z,101824.47
2024-02-14T18:37:26.950Z,101826.28
2024-02-14T18:39:58.213Z,101825.31
2024-02-14T18:42:27.972Z,101835.44
2024-02-14T18:44:55.978Z,101834.88
2024-02-14T18:47:24.739Z,101837.38
2024-02-14T18:49:52.856Z,101836.59
2024-02-14T18:52:21.101Z,101844.50
2024-02-14T18:54:49.138Z,101853.63
2024-02-14T18:57:17.192Z,101839.03
2024-02-14T18:59:46.645Z,101850.28
2024-02-14T19:02:15.159Z,101833.97
2024-02-14T19:04:43.274Z,101832.69
2024-02-14T19:07:12.545Z,101845.88
2024-02-14T19:09:41.110Z,101837.56
2024-02-14T19:12:09.567Z,101833.34
2024-02-14T19:14:39.298Z,101826.78
2024-02-14T19:17:08.811Z,101832.97
2024-02-14T19:19:37.844Z,101840.13
2024-02-14T19:22:07.594Z,101845.47
2024-02-14T19:24:35.782Z,101847.91
2024-02-14T19:27:03.931Z,101835.56
2024-02-14T19:29:32.014Z,101841.50
2024-02-14T19:32:00.254Z,101849.19
2024-02-14T19:34:30.119Z,101848.88
2024-02-14T19:36:58.206Z,101845.88
2024-02-14T19:39:26.361Z,101842.44
2024-02-14T19:41:54.746Z,101847.81
2024-02-14T19:44:22.792Z,101849.41
2024-02-14T19:46:51.587Z,101846.34
2024-02-14T19:49:22.595Z,101852.22
2024-02-14T19:51:53.736Z,101847.00
2024-02-14T19:54:22.086Z,101847.97
2024-02-14T19:56:50.776Z,101847.84
2024-02-14T19:59:20.257Z,101855.53
2024-02-14T20:01:48.258Z,101853.19
2024-02-14T20:04:16.384Z,101863.47
2024-02-14T20:06:44.411Z,101856.22
2024-02-14T20:09:15.420Z,101860.13
2024-02-14T20:11:46.077Z,101860.72
2024-02-14T20:14:14.282Z,101866.25
2024-02-14T20:16:42.748Z,101862.75
2024-02-14T20:19:11.502Z,101859.44
2024-02-14T20:21:39.726Z,101857.56
2024-02-14T20:24:10.699Z,101859.78
2024-02-14T20:26:40.344Z,101859.19
2024-02-14T20:29:08.513Z,101863.63
2024-02-14T20:31:37.147Z,101866.38
2024-02-14T20:34:06.367Z,101862.66
2024-02-14T20:36:38.310Z,101866.75
2024-02-14T20:39:08.927Z,101856.69
2024-02-14T20:41:37.865Z,101867.13
2024-02-14T20:44:07.553Z,101859.69
2024-02-14T20:46:36.692Z,101860.28
2024-02-14T20:49:06.043Z,101862.44
2024-02-14T20:51:36.406Z,101852.63
2024-02-14T20:54:06.227Z,101859.28
2024-02-14T20:56:34.537Z,101856.97
2024-02-14T20:59:10.849Z,101852.63
2024-02-14T21:01:48.191Z,101854.31
2024-02-14T21:04:16.211Z,101851.75
2024-02-14T21:06:44.291Z,101853.66
2024-02-14T21:09:12.379Z,101855.53
2024-02-14T21:11:41.256Z,101857.69
2024-02-14T21:14:09.266Z,101853.88
2024-02-14T21:16:37.515Z,101855.16
2024-02-14T21:19:07.250Z,101855.59
2024-02-14T21:21:36.791Z,101859.84
2024-02-14T21:24:05.143Z,101863.78
2024-02-14T21:26:33.259Z,101859.75
2024-02-14T21:29:01.243Z,101869.00
2024-02-14T21:31:30.686Z,101857.81
2024-02-14T21:33:59.035Z,101856.19
2024-02-14T21:36:28.488Z,101864.22
2024-02-14T21:38:56.797Z,101863.63
2024-02-14T21:41:26.469Z,101872.75
2024-02-14T21:43:54.584Z,101869.34
2024-02-14T21:46:24.432Z,101864.03
2024-02-14T21:48:53.376Z,101863.34
2024-02-14T21:51:21.889Z,101856.53
2024-02-14T21:53:52.115Z,101852.16
2024-02-14T21:56:20.268Z,101862.16
2024-02-14T21:58:48.305Z,101865.66
2024-02-14T22:01:16.499Z,101861.75
2024-02-14T22:03:44.463Z,101859.59
2024-02-14T22:06:12.633Z,101856.75
2024-02-14T22:08:40.708Z,101856.31
2024-02-14T22:11:12.130Z,101847.28
2024-02-14T22:13:40.114Z,101849.47
2024-02-14T22:16:10.124Z,101853.06
2024-02-14T22:18:39.147Z,101852.53
2024-02-14T22:21:07.788Z,101852.72
2024-02-14T22:23:35.828Z,101849.47
2024-02-14T22:26:04.697Z,101848.00
2024-02-14T22:28:36.493Z,101845.47
2024-02-14T22:31:04.583Z,101850.63
2024-02-14T22:33:32.732Z,101847.75
2024-02-14T22:36:01.520Z,101845.03
2024-02-14T22:38:29.658Z,101843.72
2024-02-14T22:40:57.716Z,101844.50
2024-02-14T22:43:25.739Z,101837.91
2024-02-14T22:45:55.047Z,101838.16
2024-02-14T22:48:23.443Z,101831.59
2024-02-14T22:50:51.986Z,101829.28
2024-02-14T22:53:19.978Z,101820.66
2024-02-14T22:55:49.531Z,101819.97
2024-02-14T22:58:17.562Z,101819.44
2024-02-14T23:00:45.571Z,101820.38
2024-02-14T23:03:16.269Z,101819.88
2024-02-14T23:05:45.340Z,101800.19
2024-02-14T23:08:13.501Z,101811.31
2024-02-14T23:10:41.602Z,101813.34
2024-02-14T23:13:09.899Z,101810.53
2024-02-14T23:15:38.146Z,101814.75
2024-02-14T23:18:07.300Z,101815.69
2024-02-14T23:20:39.311Z,101819.03
2024-02-14T23:23:07.735Z,101820.19
2024-02-14T23:25:35.751Z,101824.88
2024-02-14T23:28:03.927Z,101824.34
2024-02-14T23:30:31.935Z,101834.22
2024-02-14T23:33:00.219Z,101831.69
2024-02-14T23:35:28.810Z,101831.84
2024-02-14T23:37:58.206Z,101831.69
2024-02-14T23:40:26.197Z,101831.00
2024-02-14T23:43:00.484Z,101829.28
2024-02-14T23:45:28.749Z,101830.06
2024-02-14T23:47:56.858Z,101837.66
2024-02-14T23:50:26.295Z,101841.94
2024-02-14T23:52:54.415Z,101839.88
2024-02-14T23:55:24.033Z,101840.50
2024-02-14T23:57:52.761Z,101840.50
